sensor_id;sensor_type;location;lat;lon;timestamp;P1;durP1;ratioP1;P2;durP2;ratioP2
10154;SDS011;5118;48.570;7.916;2023-07-28T00:00:18;3.50;;;3.20;;
10154;SDS011;5118;48.570;7.916;2023-07-28T00:02:46;6.10;;;3.42;;
10154;SDS011;5118;48.570;7.916;2023-07-28T00:05:15;3.88;;;3.20;;
10154;SDS011;5118;48.570;7.916;2023-07-28T00:07:44;3.75;;;3.10;;
10154;SDS011;5118;48.570;7.916;2023-07-28T00:10:13;3.50;;;3.20;;
10154;SDS011;5118;48.570;7.916;2023-07-28T00:12:41;7.25;;;3.50;;
10154;SDS011;5118;48.570;7.916;2023-07-28T00:15:09;3.88;;;3.53;;
10154;SDS011;5118;48.570;7.916;2023-07-28T00:17:38;6.18;;;3.28;;
10154;SDS011;5118;48.570;7.916;2023-07-28T00:20:07;4.20;;;3.30;;
10154;SDS011;5118;48.570;7.916;2023-07-28T00:22:36;4.22;;;3.20;;
10154;SDS011;5118;48.570;7.916;2023-07-28T00:25:06;3.47;;;3.17;;
10154;SDS011;5118;48.570;7.916;2023-07-28T00:27:35;5.97;;;3.53;;
10154;SDS011;5118;48.570;7.916;2023-07-28T00:30:04;3.72;;;3.35;;
10154;SDS011;5118;48.570;7.916;2023-07-28T00:32:33;3.63;;;3.33;;
10154;SDS011;5118;48.570;7.916;2023-07-28T00:35:02;4.05;;;3.20;;
10154;SDS011;5118;48.570;7.916;2023-07-28T00:37:31;4.68;;;3.28;;
10154;SDS011;5118;48.570;7.916;2023-07-28T00:40:00;3.33;;;3.00;;
10154;SDS011;5118;48.570;7.916;2023-07-28T00:42:30;3.72;;;2.90;;
10154;SDS011;5118;48.570;7.916;2023-07-28T00:45:00;3.83;;;3.20;;
10154;SDS011;5118;48.570;7.916;2023-07-28T00:47:29;3.60;;;3.30;;
10154;SDS011;5118;48.570;7.916;2023-07-28T00:49:58;4.97;;;3.53;;
10154;SDS011;5118;48.570;7.916;2023-07-28T00:52:26;4.22;;;3.30;;
10154;SDS011;5118;48.570;7.916;2023-07-28T00:54:55;3.45;;;3.15;;
10154;SDS011;5118;48.570;7.916;2023-07-28T00:57:23;5.53;;;3.10;;
10154;SDS011;5118;48.570;7.916;2023-07-28T00:59:53;3.90;;;3.10;;
10154;SDS011;5118;48.570;7.916;2023-07-28T01:05:26;4.47;;;2.90;;
10154;SDS011;5118;48.570;7.916;2023-07-28T01:08:01;5.07;;;3.00;;
10154;SDS011;5118;48.570;7.916;2023-07-28T01:10:33;3.75;;;3.25;;
10154;SDS011;5118;48.570;7.916;2023-07-28T01:13:03;3.42;;;3.03;;
10154;SDS011;5118;48.570;7.916;2023-07-28T01:15:32;3.40;;;3.10;;
10154;SDS011;5118;48.570;7.916;2023-07-28T01:18:01;3.88;;;3.00;;
10154;SDS011;5118;48.570;7.916;2023-07-28T01:20:29;3.55;;;3.20;;
10154;SDS011;5118;48.570;7.916;2023-07-28T01:23:06;3.33;;;3.03;;
10154;SDS011;5118;48.570;7.916;2023-07-28T01:25:39;3.60;;;3.30;;
10154;SDS011;5118;48.570;7.916;2023-07-28T01:28:17;5.00;;;3.42;;
10154;SDS011;5118;48.570;7.916;2023-07-28T01:30:46;3.38;;;3.08;;
10154;SDS011;5118;48.570;7.916;2023-07-28T01:33:15;3.80;;;3.47;;
10154;SDS011;5118;48.570;7.916;2023-07-28T01:35:43;3.50;;;3.20;;
10154;SDS011;5118;48.570;7.916;2023-07-28T01:38:11;3.60;;;3.30;;
10154;SDS011;5118;48.570;7.916;2023-07-28T01:40:40;3.35;;;2.95;;
10154;SDS011;5118;48.570;7.916;2023-07-28T01:43:08;3.40;;;3.20;;
10154;SDS011;5118;48.570;7.916;2023-07-28T01:45:38;4.25;;;3.40;;
10154;SDS011;5118;48.570;7.916;2023-07-28T01:48:07;4.82;;;3.30;;
10154;SDS011;5118;48.570;7.916;2023-07-28T01:50:36;3.53;;;3.22;;
10154;SDS011;5118;48.570;7.916;2023-07-28T01:53:05;3.78;;;3.03;;
10154;SDS011;5118;48.570;7.916;2023-07-28T01:55:35;4.35;;;3.28;;
10154;SDS011;5118;48.570;7.916;2023-07-28T01:58:03;3.63;;;3.20;;
10154;SDS011;5118;48.570;7.916;2023-07-28T02:00:32;4.88;;;3.20;;
10154;SDS011;5118;48.570;7.916;2023-07-28T02:03:02;3.67;;;3.38;;
10154;SDS011;5118;48.570;7.916;2023-07-28T02:05:31;3.58;;;3.28;;
10154;SDS011;5118;48.570;7.916;2023-07-28T02:08:00;4.28;;;3.38;;
10154;SDS011;5118;48.570;7.916;2023-07-28T02:10:28;4.45;;;3.50;;
10154;SDS011;5118;48.570;7.916;2023-07-28T02:12:57;3.58;;;3.28;;
10154;SDS011;5118;48.570;7.916;2023-07-28T02:15:26;4.07;;;3.38;;
10154;SDS011;5118;48.570;7.916;2023-07-28T02:17:54;5.90;;;3.58;;
10154;SDS011;5118;48.570;7.916;2023-07-28T02:20:25;4.35;;;3.53;;
10154;SDS011;5118;48.570;7.916;2023-07-28T02:22:53;4.55;;;3.38;;
10154;SDS011;5118;48.570;7.916;2023-07-28T02:25:22;3.90;;;3.60;;
10154;SDS011;5118;48.570;7.916;2023-07-28T02:27:51;3.97;;;3.58;;
10154;SDS011;5118;48.570;7.916;2023-07-28T02:30:20;5.13;;;3.38;;
10154;SDS011;5118;48.570;7.916;2023-07-28T02:32:48;5.63;;;3.70;;
10154;SDS011;5118;48.570;7.916;2023-07-28T02:35:17;5.40;;;3.95;;
10154;SDS011;5118;48.570;7.916;2023-07-28T02:37:48;4.10;;;3.70;;
10154;SDS011;5118;48.570;7.916;2023-07-28T02:40:17;4.00;;;3.60;;
10154;SDS011;5118;48.570;7.916;2023-07-28T02:42:46;3.63;;;3.33;;
10154;SDS011;5118;48.570;7.916;2023-07-28T02:45:14;6.15;;;3.90;;
10154;SDS011;5118;48.570;7.916;2023-07-28T02:47:43;4.30;;;3.75;;
10154;SDS011;5118;48.570;7.916;2023-07-28T02:50:11;4.40;;;3.92;;
10154;SDS011;5118;48.570;7.916;2023-07-28T02:52:40;4.70;;;4.18;;
10154;SDS011;5118;48.570;7.916;2023-07-28T02:55:09;4.13;;;3.72;;
10154;SDS011;5118;48.570;7.916;2023-07-28T02:57:38;5.10;;;3.97;;
10154;SDS011;5118;48.570;7.916;2023-07-28T03:00:07;4.22;;;3.88;;
10154;SDS011;5118;48.570;7.916;2023-07-28T03:02:37;4.22;;;3.85;;
10154;SDS011;5118;48.570;7.916;2023-07-28T03:05:06;4.22;;;3.85;;
10154;SDS011;5118;48.570;7.916;2023-07-28T03:07:38;4.38;;;3.88;;
10154;SDS011;5118;48.570;7.916;2023-07-28T03:10:10;4.30;;;3.90;;
10154;SDS011;5118;48.570;7.916;2023-07-28T03:12:43;4.30;;;3.90;;
10154;SDS011;5118;48.570;7.916;2023-07-28T03:15:11;4.80;;;4.30;;
10154;SDS011;5118;48.570;7.916;2023-07-28T03:17:40;3.90;;;3.55;;
10154;SDS011;5118;48.570;7.916;2023-07-28T03:20:09;4.32;;;3.92;;
10154;SDS011;5118;48.570;7.916;2023-07-28T03:22:38;5.28;;;3.50;;
10154;SDS011;5118;48.570;7.916;2023-07-28T03:25:07;4.32;;;3.92;;
10154;SDS011;5118;48.570;7.916;2023-07-28T03:27:37;4.03;;;3.65;;
10154;SDS011;5118;48.570;7.916;2023-07-28T03:30:06;3.88;;;3.58;;
10154;SDS011;5118;48.570;7.916;2023-07-28T03:32:37;4.38;;;3.80;;
10154;SDS011;5118;48.570;7.916;2023-07-28T03:35:06;5.07;;;4.05;;
10154;SDS011;5118;48.570;7.916;2023-07-28T03:37:40;4.65;;;4.00;;
10154;SDS011;5118;48.570;7.916;2023-07-28T03:40:09;3.90;;;3.60;;
10154;SDS011;5118;48.570;7.916;2023-07-28T03:42:49;4.25;;;3.83;;
10154;SDS011;5118;48.570;7.916;2023-07-28T03:45:17;5.15;;;3.90;;
10154;SDS011;5118;48.570;7.916;2023-07-28T03:47:46;4.63;;;3.85;;
10154;SDS011;5118;48.570;7.916;2023-07-28T03:50:14;4.53;;;3.78;;
10154;SDS011;5118;48.570;7.916;2023-07-28T03:52:44;4.10;;;3.70;;
10154;SDS011;5118;48.570;7.916;2023-07-28T03:55:13;4.32;;;3.92;;
10154;SDS011;5118;48.570;7.916;2023-07-28T03:57:41;4.43;;;4.13;;
10154;SDS011;5118;48.570;7.916;2023-07-28T04:00:12;4.65;;;4.22;;
10154;SDS011;5118;48.570;7.916;2023-07-28T04:02:41;4.50;;;4.10;;
10154;SDS011;5118;48.570;7.916;2023-07-28T04:05:09;4.43;;;3.92;;
10154;SDS011;5118;48.570;7.916;2023-07-28T04:07:38;4.30;;;4.00;;
10154;SDS011;5118;48.570;7.916;2023-07-28T04:10:09;4.63;;;4.20;;
10154;SDS011;5118;48.570;7.916;2023-07-28T04:12:38;4.28;;;3.90;;
10154;SDS011;5118;48.570;7.916;2023-07-28T04:15:07;4.63;;;4.30;;
10154;SDS011;5118;48.570;7.916;2023-07-28T04:17:37;3.90;;;3.60;;
10154;SDS011;5118;48.570;7.916;2023-07-28T04:20:06;6.60;;;4.07;;
10154;SDS011;5118;48.570;7.916;2023-07-28T04:22:35;6.45;;;4.38;;
10154;SDS011;5118;48.570;7.916;2023-07-28T04:25:04;4.88;;;4.00;;
10154;SDS011;5118;48.570;7.916;2023-07-28T04:27:33;4.32;;;3.92;;
10154;SDS011;5118;48.570;7.916;2023-07-28T04:30:04;5.32;;;4.35;;
10154;SDS011;5118;48.570;7.916;2023-07-28T04:32:33;4.30;;;3.90;;
10154;SDS011;5118;48.570;7.916;2023-07-28T04:35:11;5.35;;;4.13;;
10154;SDS011;5118;48.570;7.916;2023-07-28T04:37:48;4.53;;;4.13;;
10154;SDS011;5118;48.570;7.916;2023-07-28T04:40:26;5.18;;;4.50;;
10154;SDS011;5118;48.570;7.916;2023-07-28T04:42:54;4.93;;;4.53;;
10154;SDS011;5118;48.570;7.916;2023-07-28T04:45:23;4.85;;;4.40;;
10154;SDS011;5118;48.570;7.916;2023-07-28T04:47:52;4.68;;;4.18;;
10154;SDS011;5118;48.570;7.916;2023-07-28T04:50:22;5.13;;;4.50;;
10154;SDS011;5118;48.570;7.916;2023-07-28T04:52:51;4.50;;;4.20;;
10154;SDS011;5118;48.570;7.916;2023-07-28T04:55:38;4.70;;;4.10;;
10154;SDS011;5118;48.570;7.916;2023-07-28T04:58:07;5.05;;;4.57;;
10154;SDS011;5118;48.570;7.916;2023-07-28T05:00:46;5.80;;;4.80;;
10154;SDS011;5118;48.570;7.916;2023-07-28T05:03:15;5.50;;;4.88;;
10154;SDS011;5118;48.570;7.916;2023-07-28T05:05:51;5.30;;;4.80;;
10154;SDS011;5118;48.570;7.916;2023-07-28T05:08:20;5.70;;;5.10;;
10154;SDS011;5118;48.570;7.916;2023-07-28T05:10:48;5.15;;;4.75;;
10154;SDS011;5118;48.570;7.916;2023-07-28T05:13:17;5.45;;;4.95;;
10154;SDS011;5118;48.570;7.916;2023-07-28T05:15:54;6.30;;;4.68;;
10154;SDS011;5118;48.570;7.916;2023-07-28T05:18:46;5.90;;;5.30;;
10154;SDS011;5118;48.570;7.916;2023-07-28T05:21:41;5.90;;;5.05;;
10154;SDS011;5118;48.570;7.916;2023-07-28T05:24:12;6.20;;;5.22;;
10154;SDS011;5118;48.570;7.916;2023-07-28T05:26:41;5.45;;;5.00;;
10154;SDS011;5118;48.570;7.916;2023-07-28T05:29:09;5.50;;;4.97;;
10154;SDS011;5118;48.570;7.916;2023-07-28T05:31:38;6.43;;;5.53;;
10154;SDS011;5118;48.570;7.916;2023-07-28T05:34:16;6.05;;;5.20;;
10154;SDS011;5118;48.570;7.916;2023-07-28T05:36:46;5.43;;;4.82;;
10154;SDS011;5118;48.570;7.916;2023-07-28T05:39:15;6.25;;;5.65;;
10154;SDS011;5118;48.570;7.916;2023-07-28T05:41:44;6.00;;;5.25;;
10154;SDS011;5118;48.570;7.916;2023-07-28T05:44:13;5.47;;;5.00;;
10154;SDS011;5118;48.570;7.916;2023-07-28T05:46:42;6.63;;;5.68;;
10154;SDS011;5118;48.570;7.916;2023-07-28T05:49:11;5.45;;;4.95;;
10154;SDS011;5118;48.570;7.916;2023-07-28T05:51:40;6.13;;;5.53;;
10154;SDS011;5118;48.570;7.916;2023-07-28T05:54:13;5.80;;;5.35;;
10154;SDS011;5118;48.570;7.916;2023-07-28T05:56:42;5.88;;;5.32;;
10154;SDS011;5118;48.570;7.916;2023-07-28T05:59:11;5.53;;;4.65;;
10154;SDS011;5118;48.570;7.916;2023-07-28T06:01:39;5.95;;;5.35;;
10154;SDS011;5118;48.570;7.916;2023-07-28T06:04:16;5.65;;;5.15;;
10154;SDS011;5118;48.570;7.916;2023-07-28T06:06:47;5.30;;;4.65;;
10154;SDS011;5118;48.570;7.916;2023-07-28T06:09:18;5.88;;;4.93;;
10154;SDS011;5118;48.570;7.916;2023-07-28T06:11:46;5.50;;;5.00;;
10154;SDS011;5118;48.570;7.916;2023-07-28T06:14:15;6.97;;;4.97;;
10154;SDS011;5118;48.570;7.916;2023-07-28T06:16:44;5.90;;;4.90;;
10154;SDS011;5118;48.570;7.916;2023-07-28T06:19:12;5.65;;;4.65;;
10154;SDS011;5118;48.570;7.916;2023-07-28T06:21:42;7.60;;;6.88;;
10154;SDS011;5118;48.570;7.916;2023-07-28T06:24:11;6.00;;;4.82;;
10154;SDS011;5118;48.570;7.916;2023-07-28T06:26:41;7.70;;;4.80;;
10154;SDS011;5118;48.570;7.916;2023-07-28T06:29:10;5.43;;;4.80;;
10154;SDS011;5118;48.570;7.916;2023-07-28T06:31:38;5.18;;;4.35;;
10154;SDS011;5118;48.570;7.916;2023-07-28T06:34:07;4.82;;;4.35;;
10154;SDS011;5118;48.570;7.916;2023-07-28T06:36:36;4.82;;;4.43;;
10154;SDS011;5118;48.570;7.916;2023-07-28T06:39:05;5.18;;;4.68;;
10154;SDS011;5118;48.570;7.916;2023-07-28T06:41:34;9.25;;;4.72;;
10154;SDS011;5118;48.570;7.916;2023-07-28T06:44:08;5.50;;;4.07;;
10154;SDS011;5118;48.570;7.916;2023-07-28T06:46:36;4.60;;;4.03;;
10154;SDS011;5118;48.570;7.916;2023-07-28T06:49:05;4.40;;;4.00;;
10154;SDS011;5118;48.570;7.916;2023-07-28T06:51:33;4.47;;;4.07;;
10154;SDS011;5118;48.570;7.916;2023-07-28T06:54:03;6.75;;;4.25;;
10154;SDS011;5118;48.570;7.916;2023-07-28T06:56:31;5.43;;;4.22;;
10154;SDS011;5118;48.570;7.916;2023-07-28T06:59:00;6.45;;;4.25;;
10154;SDS011;5118;48.570;7.916;2023-07-28T07:01:42;5.03;;;4.45;;
10154;SDS011;5118;48.570;7.916;2023-07-28T07:04:11;4.10;;;3.80;;
10154;SDS011;5118;48.570;7.916;2023-07-28T07:06:39;6.53;;;4.30;;
10154;SDS011;5118;48.570;7.916;2023-07-28T07:09:08;4.53;;;4.13;;
10154;SDS011;5118;48.570;7.916;2023-07-28T07:11:36;4.60;;;4.20;;
10154;SDS011;5118;48.570;7.916;2023-07-28T07:14:05;4.57;;;4.18;;
10154;SDS011;5118;48.570;7.916;2023-07-28T07:16:33;4.20;;;3.85;;
10154;SDS011;5118;48.570;7.916;2023-07-28T07:19:06;4.68;;;3.83;;
10154;SDS011;5118;48.570;7.916;2023-07-28T07:21:35;4.97;;;4.57;;
10154;SDS011;5118;48.570;7.916;2023-07-28T07:24:04;4.50;;;4.10;;
10154;SDS011;5118;48.570;7.916;2023-07-28T07:26:34;6.18;;;4.38;;
10154;SDS011;5118;48.570;7.916;2023-07-28T07:29:02;4.47;;;4.07;;
10154;SDS011;5118;48.570;7.916;2023-07-28T07:31:30;4.90;;;4.40;;
10154;SDS011;5118;48.570;7.916;2023-07-28T07:33:59;4.70;;;4.30;;
10154;SDS011;5118;48.570;7.916;2023-07-28T07:36:29;4.80;;;4.10;;
10154;SDS011;5118;48.570;7.916;2023-07-28T07:38:58;4.38;;;3.83;;
10154;SDS011;5118;48.570;7.916;2023-07-28T07:41:26;3.90;;;3.60;;
10154;SDS011;5118;48.570;7.916;2023-07-28T07:43:56;3.88;;;3.47;;
10154;SDS011;5118;48.570;7.916;2023-07-28T07:46:24;4.47;;;3.70;;
10154;SDS011;5118;48.570;7.916;2023-07-28T07:48:52;8.07;;;4.03;;
10154;SDS011;5118;48.570;7.916;2023-07-28T07:51:21;4.30;;;3.65;;
10154;SDS011;5118;48.570;7.916;2023-07-28T07:53:51;4.22;;;3.83;;
10154;SDS011;5118;48.570;7.916;2023-07-28T07:56:20;4.40;;;3.70;;
10154;SDS011;5118;48.570;7.916;2023-07-28T07:58:48;4.63;;;3.97;;
10154;SDS011;5118;48.570;7.916;2023-07-28T08:01:17;5.05;;;3.92;;
10154;SDS011;5118;48.570;7.916;2023-07-28T08:03:45;5.45;;;3.80;;
10154;SDS011;5118;48.570;7.916;2023-07-28T08:06:14;4.68;;;3.83;;
10154;SDS011;5118;48.570;7.916;2023-07-28T08:08:42;4.80;;;4.30;;
10154;SDS011;5118;48.570;7.916;2023-07-28T08:11:13;4.15;;;3.75;;
10154;SDS011;5118;48.570;7.916;2023-07-28T08:13:41;4.05;;;3.75;;
10154;SDS011;5118;48.570;7.916;2023-07-28T08:16:10;5.63;;;3.70;;
10154;SDS011;5118;48.570;7.916;2023-07-28T08:18:38;4.43;;;3.70;;
10154;SDS011;5118;48.570;7.916;2023-07-28T08:21:07;4.53;;;4.13;;
10154;SDS011;5118;48.570;7.916;2023-07-28T08:23:35;4.47;;;3.63;;
10154;SDS011;5118;48.570;7.916;2023-07-28T08:26:04;4.00;;;3.60;;
10154;SDS011;5118;48.570;7.916;2023-07-28T08:28:34;5.18;;;3.92;;
10154;SDS011;5118;48.570;7.916;2023-07-28T08:31:09;4.13;;;3.83;;
10154;SDS011;5118;48.570;7.916;2023-07-28T08:33:41;5.38;;;3.60;;
10154;SDS011;5118;48.570;7.916;2023-07-28T08:36:10;3.85;;;3.55;;
10154;SDS011;5118;48.570;7.916;2023-07-28T08:38:39;5.93;;;3.78;;
10154;SDS011;5118;48.570;7.916;2023-07-28T08:41:07;4.13;;;3.83;;
10154;SDS011;5118;48.570;7.916;2023-07-28T08:43:37;5.97;;;4.03;;
10154;SDS011;5118;48.570;7.916;2023-07-28T08:46:08;4.43;;;3.72;;
10154;SDS011;5118;48.570;7.916;2023-07-28T08:48:36;6.45;;;3.63;;
10154;SDS011;5118;48.570;7.916;2023-07-28T08:51:05;3.60;;;3.30;;
10154;SDS011;5118;48.570;7.916;2023-07-28T08:53:35;8.35;;;3.28;;
10154;SDS011;5118;48.570;7.916;2023-07-28T08:56:03;3.75;;;3.17;;
10154;SDS011;5118;48.570;7.916;2023-07-28T08:58:32;3.60;;;3.30;;
10154;SDS011;5118;48.570;7.916;2023-07-28T09:01:02;4.03;;;3.20;;
10154;SDS011;5118;48.570;7.916;2023-07-28T09:03:32;3.53;;;3.22;;
10154;SDS011;5118;48.570;7.916;2023-07-28T09:06:04;3.97;;;3.58;;
10154;SDS011;5118;48.570;7.916;2023-07-28T09:08:35;3.60;;;3.30;;
10154;SDS011;5118;48.570;7.916;2023-07-28T09:11:04;4.57;;;3.60;;
10154;SDS011;5118;48.570;7.916;2023-07-28T09:13:35;8.45;;;3.47;;
10154;SDS011;5118;48.570;7.916;2023-07-28T09:16:11;5.00;;;3.50;;
10154;SDS011;5118;48.570;7.916;2023-07-28T09:18:44;3.45;;;3.15;;
10154;SDS011;5118;48.570;7.916;2023-07-28T09:21:17;4.28;;;3.22;;
10154;SDS011;5118;48.570;7.916;2023-07-28T09:23:48;3.60;;;3.30;;
10154;SDS011;5118;48.570;7.916;2023-07-28T09:26:16;5.43;;;3.42;;
10154;SDS011;5118;48.570;7.916;2023-07-28T09:28:45;3.60;;;3.30;;
10154;SDS011;5118;48.570;7.916;2023-07-28T09:31:15;4.90;;;3.40;;
10154;SDS011;5118;48.570;7.916;2023-07-28T09:33:56;3.13;;;2.92;;
10154;SDS011;5118;48.570;7.916;2023-07-28T09:36:24;3.38;;;3.17;;
10154;SDS011;5118;48.570;7.916;2023-07-28T09:38:53;3.88;;;3.25;;
10154;SDS011;5118;48.570;7.916;2023-07-28T09:41:22;3.70;;;3.40;;
10154;SDS011;5118;48.570;7.916;2023-07-28T09:43:52;4.07;;;3.28;;
10154;SDS011;5118;48.570;7.916;2023-07-28T09:46:22;3.92;;;3.60;;
10154;SDS011;5118;48.570;7.916;2023-07-28T09:48:56;4.13;;;3.05;;
10154;SDS011;5118;48.570;7.916;2023-07-28T09:51:28;3.63;;;3.30;;
10154;SDS011;5118;48.570;7.916;2023-07-28T09:54:02;3.35;;;3.05;;
10154;SDS011;5118;48.570;7.916;2023-07-28T09:56:32;4.43;;;3.50;;
10154;SDS011;5118;48.570;7.916;2023-07-28T09:59:02;3.70;;;3.30;;
10154;SDS011;5118;48.570;7.916;2023-07-28T10:01:37;3.70;;;3.40;;
10154;SDS011;5118;48.570;7.916;2023-07-28T10:04:07;3.70;;;3.40;;
10154;SDS011;5118;48.570;7.916;2023-07-28T10:06:36;3.58;;;3.15;;
10154;SDS011;5118;48.570;7.916;2023-07-28T10:09:05;3.78;;;3.08;;
10154;SDS011;5118;48.570;7.916;2023-07-28T10:11:34;3.50;;;3.20;;
10154;SDS011;5118;48.570;7.916;2023-07-28T10:14:03;3.00;;;2.80;;
10154;SDS011;5118;48.570;7.916;2023-07-28T10:16:38;3.47;;;3.17;;
10154;SDS011;5118;48.570;7.916;2023-07-28T10:19:07;4.75;;;3.35;;
10154;SDS011;5118;48.570;7.916;2023-07-28T10:21:39;3.08;;;2.80;;
10154;SDS011;5118;48.570;7.916;2023-07-28T10:24:08;3.30;;;3.00;;
10154;SDS011;5118;48.570;7.916;2023-07-28T10:26:37;3.50;;;3.20;;
10154;SDS011;5118;48.570;7.916;2023-07-28T10:29:12;3.58;;;3.28;;
10154;SDS011;5118;48.570;7.916;2023-07-28T10:31:50;8.80;;;3.10;;
10154;SDS011;5118;48.570;7.916;2023-07-28T10:34:20;2.83;;;2.63;;
10154;SDS011;5118;48.570;7.916;2023-07-28T10:36:56;4.25;;;3.00;;
10154;SDS011;5118;48.570;7.916;2023-07-28T10:39:26;3.47;;;2.70;;
10154;SDS011;5118;48.570;7.916;2023-07-28T10:42:00;4.50;;;3.05;;
10154;SDS011;5118;48.570;7.916;2023-07-28T10:44:30;3.03;;;2.70;;
10154;SDS011;5118;48.570;7.916;2023-07-28T10:47:00;4.95;;;3.20;;
10154;SDS011;5118;48.570;7.916;2023-07-28T10:49:29;2.95;;;2.75;;
10154;SDS011;5118;48.570;7.916;2023-07-28T10:52:00;3.35;;;3.00;;
10154;SDS011;5118;48.570;7.916;2023-07-28T10:54:29;5.28;;;3.05;;
10154;SDS011;5118;48.570;7.916;2023-07-28T10:57:01;3.40;;;3.00;;
10154;SDS011;5118;48.570;7.916;2023-07-28T10:59:32;3.60;;;3.13;;
10154;SDS011;5118;48.570;7.916;2023-07-28T11:02:05;3.30;;;3.00;;
10154;SDS011;5118;48.570;7.916;2023-07-28T11:04:33;3.70;;;3.40;;
10154;SDS011;5118;48.570;7.916;2023-07-28T11:07:03;4.45;;;3.30;;
10154;SDS011;5118;48.570;7.916;2023-07-28T11:09:33;3.78;;;3.47;;
10154;SDS011;5118;48.570;7.916;2023-07-28T11:12:02;5.00;;;3.28;;
10154;SDS011;5118;48.570;7.916;2023-07-28T11:14:31;3.20;;;2.90;;
10154;SDS011;5118;48.570;7.916;2023-07-28T11:16:59;3.17;;;2.97;;
10154;SDS011;5118;48.570;7.916;2023-07-28T11:19:30;3.65;;;3.35;;
10154;SDS011;5118;48.570;7.916;2023-07-28T11:21:59;3.55;;;3.25;;
10154;SDS011;5118;48.570;7.916;2023-07-28T11:24:27;3.75;;;3.08;;
10154;SDS011;5118;48.570;7.916;2023-07-28T11:26:57;3.92;;;2.90;;
10154;SDS011;5118;48.570;7.916;2023-07-28T11:29:26;4.05;;;3.60;;
10154;SDS011;5118;48.570;7.916;2023-07-28T11:31:55;3.47;;;3.17;;
10154;SDS011;5118;48.570;7.916;2023-07-28T11:34:24;4.40;;;3.42;;
10154;SDS011;5118;48.570;7.916;2023-07-28T11:36:53;3.50;;;3.20;;
10154;SDS011;5118;48.570;7.916;2023-07-28T11:39:22;3.58;;;3.03;;
10154;SDS011;5118;48.570;7.916;2023-07-28T11:41:51;6.75;;;3.55;;
10154;SDS011;5118;48.570;7.916;2023-07-28T11:44:21;4.60;;;3.78;;
10154;SDS011;5118;48.570;7.916;2023-07-28T11:46:50;4.43;;;3.70;;
10154;SDS011;5118;48.570;7.916;2023-07-28T11:49:22;3.85;;;3.50;;
10154;SDS011;5118;48.570;7.916;2023-07-28T11:51:51;4.45;;;3.47;;
10154;SDS011;5118;48.570;7.916;2023-07-28T11:54:25;4.50;;;4.10;;
10154;SDS011;5118;48.570;7.916;2023-07-28T11:56:55;4.22;;;3.85;;
10154;SDS011;5118;48.570;7.916;2023-07-28T11:59:29;5.78;;;3.85;;
10154;SDS011;5118;48.570;7.916;2023-07-28T12:01:58;4.10;;;3.70;;
10154;SDS011;5118;48.570;7.916;2023-07-28T12:04:32;3.57;;;3.23;;
10154;SDS011;5118;48.570;7.916;2023-07-28T12:07:13;5.20;;;3.55;;
10154;SDS011;5118;48.570;7.916;2023-07-28T12:09:47;3.80;;;3.30;;
10154;SDS011;5118;48.570;7.916;2023-07-28T12:12:30;3.50;;;3.20;;
10154;SDS011;5118;48.570;7.916;2023-07-28T12:15:17;4.05;;;3.30;;
10154;SDS011;5118;48.570;7.916;2023-07-28T12:18:00;3.53;;;3.22;;
10154;SDS011;5118;48.570;7.916;2023-07-28T12:20:37;3.40;;;3.10;;
10154;SDS011;5118;48.570;7.916;2023-07-28T12:23:08;3.53;;;3.22;;
10154;SDS011;5118;48.570;7.916;2023-07-28T12:25:39;3.70;;;3.40;;
10154;SDS011;5118;48.570;7.916;2023-07-28T12:28:08;3.80;;;3.50;;
10154;SDS011;5118;48.570;7.916;2023-07-28T12:30:40;3.70;;;3.38;;
10154;SDS011;5118;48.570;7.916;2023-07-28T12:33:08;4.25;;;3.78;;
10154;SDS011;5118;48.570;7.916;2023-07-28T12:35:47;4.10;;;3.70;;
10154;SDS011;5118;48.570;7.916;2023-07-28T12:38:18;4.40;;;3.17;;
10154;SDS011;5118;48.570;7.916;2023-07-28T12:40:49;3.88;;;3.30;;
10154;SDS011;5118;48.570;7.916;2023-07-28T12:43:21;5.13;;;3.35;;
10154;SDS011;5118;48.570;7.916;2023-07-28T12:45:54;6.05;;;3.50;;
10154;SDS011;5118;48.570;7.916;2023-07-28T12:48:26;4.10;;;3.40;;
10154;SDS011;5118;48.570;7.916;2023-07-28T12:50:55;4.03;;;3.60;;
10154;SDS011;5118;48.570;7.916;2023-07-28T12:53:28;3.95;;;3.65;;
10154;SDS011;5118;48.570;7.916;2023-07-28T12:55:56;4.07;;;3.60;;
10154;SDS011;5118;48.570;7.916;2023-07-28T12:58:27;5.15;;;3.53;;
10154;SDS011;5118;48.570;7.916;2023-07-28T13:01:00;4.13;;;3.50;;
10154;SDS011;5118;48.570;7.916;2023-07-28T13:03:31;5.40;;;3.63;;
10154;SDS011;5118;48.570;7.916;2023-07-28T13:05:59;3.67;;;3.38;;
10154;SDS011;5118;48.570;7.916;2023-07-28T13:08:29;4.35;;;3.40;;
10154;SDS011;5118;48.570;7.916;2023-07-28T13:11:01;3.83;;;3.53;;
10154;SDS011;5118;48.570;7.916;2023-07-28T13:13:33;4.20;;;3.80;;
10154;SDS011;5118;48.570;7.916;2023-07-28T13:16:05;3.70;;;3.40;;
10154;SDS011;5118;48.570;7.916;2023-07-28T13:18:38;3.75;;;3.45;;
10154;SDS011;5118;48.570;7.916;2023-07-28T13:21:07;4.32;;;3.40;;
10154;SDS011;5118;48.570;7.916;2023-07-28T13:23:39;3.70;;;3.40;;
10154;SDS011;5118;48.570;7.916;2023-07-28T13:26:07;3.90;;;3.20;;
10154;SDS011;5118;48.570;7.916;2023-07-28T13:28:36;3.42;;;3.13;;
10154;SDS011;5118;48.570;7.916;2023-07-28T13:31:06;3.60;;;3.30;;
10154;SDS011;5118;48.570;7.916;2023-07-28T13:33:35;3.83;;;3.53;;
10154;SDS011;5118;48.570;7.916;2023-07-28T13:36:03;3.67;;;3.38;;
10154;SDS011;5118;48.570;7.916;2023-07-28T13:38:34;4.78;;;3.78;;
10154;SDS011;5118;48.570;7.916;2023-07-28T13:41:05;4.57;;;3.50;;
10154;SDS011;5118;48.570;7.916;2023-07-28T13:43:33;3.90;;;3.60;;
10154;SDS011;5118;48.570;7.916;2023-07-28T13:46:03;4.20;;;3.60;;
10154;SDS011;5118;48.570;7.916;2023-07-28T13:48:35;4.80;;;3.80;;
10154;SDS011;5118;48.570;7.916;2023-07-28T13:51:09;3.45;;;3.15;;
10154;SDS011;5118;48.570;7.916;2023-07-28T13:53:45;3.78;;;3.47;;
10154;SDS011;5118;48.570;7.916;2023-07-28T13:56:35;4.15;;;3.60;;
10154;SDS011;5118;48.570;7.916;2023-07-28T13:59:24;4.80;;;3.60;;
10154;SDS011;5118;48.570;7.916;2023-07-28T14:01:53;4.63;;;4.10;;
10154;SDS011;5118;48.570;7.916;2023-07-28T14:04:22;5.93;;;3.65;;
10154;SDS011;5118;48.570;7.916;2023-07-28T14:06:50;3.75;;;3.45;;
10154;SDS011;5118;48.570;7.916;2023-07-28T14:09:19;4.88;;;3.65;;
10154;SDS011;5118;48.570;7.916;2023-07-28T14:11:48;3.75;;;3.45;;
10154;SDS011;5118;48.570;7.916;2023-07-28T14:14:17;3.80;;;3.50;;
10154;SDS011;5118;48.570;7.916;2023-07-28T14:16:45;3.75;;;3.35;;
10154;SDS011;5118;48.570;7.916;2023-07-28T14:19:14;4.05;;;3.13;;
10154;SDS011;5118;48.570;7.916;2023-07-28T14:21:42;3.83;;;3.50;;
10154;SDS011;5118;48.570;7.916;2023-07-28T14:24:11;4.60;;;3.60;;
10154;SDS011;5118;48.570;7.916;2023-07-28T14:26:39;4.30;;;3.90;;
10154;SDS011;5118;48.570;7.916;2023-07-28T14:29:09;3.50;;;3.20;;
10154;SDS011;5118;48.570;7.916;2023-07-28T14:31:38;4.35;;;3.85;;
10154;SDS011;5118;48.570;7.916;2023-07-28T14:34:06;4.97;;;3.88;;
10154;SDS011;5118;48.570;7.916;2023-07-28T14:36:35;3.75;;;3.45;;
10154;SDS011;5118;48.570;7.916;2023-07-28T14:39:04;3.85;;;3.50;;
10154;SDS011;5118;48.570;7.916;2023-07-28T14:41:33;5.38;;;4.00;;
10154;SDS011;5118;48.570;7.916;2023-07-28T14:44:02;5.40;;;4.90;;
10154;SDS011;5118;48.570;7.916;2023-07-28T14:46:31;4.82;;;4.35;;
10154;SDS011;5118;48.570;7.916;2023-07-28T14:49:00;4.45;;;4.05;;
10154;SDS011;5118;48.570;7.916;2023-07-28T14:51:30;3.63;;;3.33;;
10154;SDS011;5118;48.570;7.916;2023-07-28T14:53:58;3.80;;;3.42;;
10154;SDS011;5118;48.570;7.916;2023-07-28T14:56:27;3.78;;;3.47;;
10154;SDS011;5118;48.570;7.916;2023-07-28T14:58:55;4.28;;;3.55;;
10154;SDS011;5118;48.570;7.916;2023-07-28T15:01:25;4.40;;;4.00;;
10154;SDS011;5118;48.570;7.916;2023-07-28T15:03:54;4.78;;;4.00;;
10154;SDS011;5118;48.570;7.916;2023-07-28T15:06:23;5.75;;;3.92;;
10154;SDS011;5118;48.570;7.916;2023-07-28T15:08:52;4.10;;;3.50;;
10154;SDS011;5118;48.570;7.916;2023-07-28T15:11:20;4.63;;;4.20;;
10154;SDS011;5118;48.570;7.916;2023-07-28T15:13:50;4.30;;;3.90;;
10154;SDS011;5118;48.570;7.916;2023-07-28T15:16:19;3.90;;;3.60;;
10154;SDS011;5118;48.570;7.916;2023-07-28T15:18:47;4.05;;;3.75;;
10154;SDS011;5118;48.570;7.916;2023-07-28T15:21:17;4.47;;;4.07;;